Sangudo, Canada
Current Conditions -  °F | °C
As of 7:00 AM on Thursday 18 Dec 2014 (Local Time) from CYZU Reporting Station
Few Clouds Few Clouds  
Wind Chill: -8°   Ceiling: Unl
Heat Index:   Visibility: 15mi
Dew Point:   Wind: 6mph
Humidity: 85%   Direction: 300°WNW
Pressure: 29.8"   Gusts: NA
Location:  53.88°N, 114.9°W
Report Text: CYZU 181400Z 30005KT 15SM FEW210 M16/M18 A2980 RMK CI2 SLP156
Loading
Personal Weather Stations






























Interactive Weather Map New forecast layout! Learn more

10-Day Weather Forecast

Advertisements
Track Severe Weather on mobile